Fox Lake, Wisconsin
Current Conditions -  °F | °C
As of 3:35 AM on Friday 24 Oct 2014 (Local Time) from KUNU Reporting Station
Haze Haze  
Wind Chill: 47°   Ceiling: 300
Heat Index: 47°   Visibility: 1.5mi
Dew Point: 47°   Wind: 0mph
Humidity: 98%   Direction: NA
Pressure: 30.04"   Gusts: NA
Location:  43.57°N, 88.91°W
Report Text: KUNU 240835Z AUTO 00000KT 1 1/2SM BR OVC003 09/08 A3004 RMK AO2 T00850082
Loading
Personal Weather Stations






























Interactive Weather Map
Tropical Storm Tracking
New forecast layout! Learn more

10-Day Weather Forecast

Advertisements
Track Severe Weather on mobile